This is the latest recevied weather packets stored in our database for station/object HJ3JCG-13. If no packets are shown the sender has not sent any weather packets the latest 10 day(s).
| Time | Temp. | Humidity | Pressure | Rain* | Wind** | Luminosity | Snow |
|---|---|---|---|---|---|---|---|
| 1777601374 | 13.33° C | 69% | 1017 hPa | 0 mm | - | - | - |
| 1777600774 | 13.89° C | 69% | 1017 hPa | 0 mm | - | - | - |
| 1777600173 | 13.89° C | 69% | 1017 hPa | 0 mm | - | - | - |
| 1777599572 | 13.89° C | 69% | 1017 hPa | 0 mm | - | - | - |
| 1777598971 | 13.89° C | 69% | 1016 hPa | 0 mm | - | - | - |
| 1777598371 | 13.89° C | 69% | 1016 hPa | 0 mm | - | - | - |
| 1777597770 | 13.89° C | 70% | 1016 hPa | 0 mm | - | - | - |
| 1777597170 | 13.89° C | 71% | 1016 hPa | 0 mm | - | - | - |
| 1777596569 | 13.89° C | 69% | 1016 hPa | 0 mm | - | - | - |
| 1777595969 | 13.89° C | 69% | 1016 hPa | 0 mm | - | - | - |
| 1777595368 | 13.89° C | 68% | 1014 hPa | 0 mm | - | - | - |
| 1777594767 | 13.89° C | 67% | 1014 hPa | 0 mm | - | - | - |
| 1777594167 | 13.89° C | 66% | 1014 hPa | 0 mm | - | - | - |
| 1777593566 | 13.89° C | 62% | 1015 hPa | 0 mm | - | - | - |
| 1777592966 | 13.89° C | 62% | 1015 hPa | 0 mm | - | - | - |
| 1777592365 | 16.67° C | 55% | 1014 hPa | 0 mm | - | - | - |
| 1777591764 | 15° C | 62% | 1013 hPa | 0 mm | - | - | - |
| 1777591164 | 15° C | 62% | 1013 hPa | 0 mm | - | - | - |
| 1777590563 | 15° C | 62% | 1013 hPa | 0 mm | - | - | - |
| 1777589963 | 15° C | 62% | 1013 hPa | 0 mm | - | - | - |
| 1777589362 | 15° C | 62% | 1013 hPa | 0 mm | - | - | - |
| 1777588762 | 16.11° C | 62% | 1012 hPa | 0 mm | - | - | - |
| 1777588161 | 15° C | 62% | 1011 hPa | 0 mm | - | - | - |
| 1777587561 | 16.11° C | 62% | 1011 hPa | 0 mm | - | - | - |
| 1777586960 | 15° C | 62% | 1011 hPa | 0 mm | - | - | - |
* Rain latest hour (hover to see other rain measurements)
** Current wind speed in m/s (hover to see current wind gust speed)